Time;durP1;ratioP1;P1;durP2;ratioP2;P2;SDS_P1;SDS_P2;PMS_P1;PMS_P2;Temp;Humidity;BMP_temperature;BMP_pressure;BME280_temperature;BME280_humidity;BME280_pressure;Samples;Min_cycle;Max_cycle;Signal;HPM_P1;HPM_P2
2023/07/26 00:01:47;;;;;;;14.15;8.43;;;;;;;12.11;100.00;93583.66;4930863;29;20051;-66
2023/07/26 00:04:14;;;;;;;15.32;9.02;;;;;;;12.03;100.00;93576.78;4912897;29;20055;-66
2023/07/26 00:06:41;;;;;;;18.33;12.10;;;;;;;12.07;100.00;93571.19;4913849;29;20110;-67
2023/07/26 00:09:08;;;;;;;14.25;9.40;;;;;;;12.00;100.00;93580.41;4930101;29;20106;-68
2023/07/26 00:11:36;;;;;;;14.68;8.75;;;;;;;11.89;100.00;93588.16;4932066;29;20413;-66
2023/07/26 00:14:03;;;;;;;13.30;8.57;;;;;;;11.98;100.00;93583.59;4934655;29;20054;-66
2023/07/26 00:16:31;;;;;;;12.40;8.55;;;;;;;11.86;100.00;93592.53;4933273;29;20060;-66
2023/07/26 00:18:58;;;;;;;14.57;8.37;;;;;;;11.94;100.00;93601.41;4934622;29;20058;-66
2023/07/26 00:21:25;;;;;;;12.88;8.30;;;;;;;11.99;100.00;93592.59;4933259;29;20051;-67
2023/07/26 00:23:52;;;;;;;15.98;8.95;;;;;;;11.97;100.00;93581.25;4934069;29;20609;-68
2023/07/26 00:26:19;;;;;;;2.00;0.93;;;;;;;12.02;100.00;93588.22;4933634;29;20052;-66
2023/07/26 00:28:45;;;;;;;12.77;8.32;;;;;;;11.93;100.00;93591.59;4934453;29;20040;-68
2023/07/26 00:31:12;;;;;;;15.53;9.40;;;;;;;12.03;100.00;93585.03;4933583;29;20078;-66
2023/07/26 00:33:39;;;;;;;18.92;12.25;;;;;;;12.00;100.00;93588.66;4934329;29;20075;-66
2023/07/26 00:36:06;;;;;;;12.98;8.52;;;;;;;11.98;100.00;93591.06;4934419;29;20094;-67
2023/07/26 00:38:33;;;;;;;13.52;7.97;;;;;;;11.92;100.00;93588.06;4922321;29;20052;-68
2023/07/26 00:40:59;;;;;;;15.73;9.52;;;;;;;11.60;100.00;93578.63;4916281;29;20058;-67
2023/07/26 00:43:26;;;;;;;12.37;7.80;;;;;;;11.93;100.00;93578.63;4932191;29;20051;-68
2023/07/26 00:45:53;;;;;;;10.73;8.00;;;;;;;12.02;100.00;93582.75;4933959;29;20043;-66
2023/07/26 00:48:20;;;;;;;14.23;8.10;;;;;;;12.11;100.00;93583.66;4933179;29;20051;-66
2023/07/26 00:50:47;;;;;;;13.43;8.45;;;;;;;12.13;100.00;93592.25;4933721;29;20048;-66
2023/07/26 00:53:14;;;;;;;11.30;8.13;;;;;;;11.97;100.00;93593.06;4933239;29;20047;-68
2023/07/26 00:55:43;;;;;;;13.83;9.10;;;;;;;11.83;100.00;93600.84;4934233;29;20062;-66
2023/07/26 00:58:11;;;;;;;12.80;7.90;;;;;;;11.81;100.00;93598.53;4933636;29;20055;-68
2023/07/26 01:00:40;;;;;;;14.07;8.48;;;;;;;11.66;100.00;93609.13;4916294;29;20615;-68
2023/07/26 01:03:07;;;;;;;11.63;7.90;;;;;;;11.80;100.00;93608.00;4933807;29;20054;-67
2023/07/26 01:06:14;;;;;;;11.88;8.10;;;;;;;11.91;100.00;93605.00;4933412;29;20051;-67
2023/07/26 01:09:03;;;;;;;10.57;7.07;;;;;;;11.90;100.00;93601.47;4893540;29;20622;-67
2023/07/26 01:11:30;;;;;;;11.43;7.45;;;;;;;11.87;100.00;93605.06;4932389;29;20464;-66
2023/07/26 01:14:17;;;;;;;12.15;7.82;;;;;;;11.72;100.00;93596.41;4933465;29;20382;-66
2023/07/26 01:16:46;;;;;;;11.30;7.60;;;;;;;11.77;100.00;93606.88;4932011;29;20494;-67
2023/07/26 01:19:12;;;;;;;10.43;7.75;;;;;;;11.64;100.00;93605.25;4932762;29;20073;-67
2023/07/26 01:21:39;;;;;;;11.40;7.60;;;;;;;11.74;100.00;93606.97;4933529;29;20047;-69
2023/07/26 01:24:06;;;;;;;10.88;7.50;;;;;;;11.81;100.00;93615.03;4931888;29;20428;-66
2023/07/26 01:26:33;;;;;;;10.43;7.72;;;;;;;11.75;100.00;93614.78;4932688;29;20047;-67
2023/07/26 01:28:59;;;;;;;16.08;7.97;;;;;;;11.82;100.00;93616.59;4933210;29;20071;-67
2023/07/26 01:31:26;;;;;;;13.60;7.50;;;;;;;11.81;100.00;93617.78;4932527;29;20512;-68
2023/07/26 01:33:54;;;;;;;12.63;8.23;;;;;;;11.37;100.00;93617.28;4933341;29;20044;-66
2023/07/26 01:36:26;;;;;;;12.52;7.80;;;;;;;11.65;100.00;93620.53;4915655;29;20058;-66
2023/07/26 01:38:53;;;;;;;13.20;7.85;;;;;;;11.66;100.00;93624.84;4918486;29;20052;-67
2023/07/26 01:41:22;;;;;;;13.68;8.43;;;;;;;11.56;100.00;93632.91;4913529;29;20442;-68
2023/07/26 01:43:48;;;;;;;15.07;7.82;;;;;;;11.63;100.00;93636.69;4933348;29;20441;-67
2023/07/26 01:46:15;;;;;;;12.63;7.90;;;;;;;11.74;100.00;93632.47;4932136;29;20047;-66
2023/07/26 01:48:42;;;;;;;12.48;8.30;;;;;;;11.74;100.00;93635.22;4915817;29;20044;-66
2023/07/26 01:51:09;;;;;;;12.23;8.50;;;;;;;11.69;100.00;93637.72;4933558;29;20051;-66
2023/07/26 01:53:36;;;;;;;11.40;7.35;;;;;;;11.71;100.00;93636.09;4915072;29;20054;-67
2023/07/26 01:56:03;;;;;;;11.48;7.65;;;;;;;11.64;100.00;93643.75;4932843;29;20421;-68
2023/07/26 01:58:30;;;;;;;11.07;7.17;;;;;;;11.59;100.00;93637.56;4931844;29;20070;-66
2023/07/26 02:00:57;;;;;;;10.25;6.57;;;;;;;11.66;100.00;93644.06;4933007;29;20048;-68
2023/07/26 02:03:23;;;;;;;11.50;7.10;;;;;;;11.59;100.00;93645.03;4932008;29;20060;-66
2023/07/26 02:05:50;;;;;;;10.50;6.72;;;;;;;11.62;100.00;93646.91;4932917;29;20050;-66
2023/07/26 02:08:17;;;;;;;8.88;6.50;;;;;;;11.72;100.00;93648.63;4931581;29;20051;-67
2023/07/26 02:10:44;;;;;;;9.00;6.23;;;;;;;11.67;100.00;93646.41;4932680;29;20109;-66
2023/07/26 02:13:11;;;;;;;9.50;6.60;;;;;;;11.46;100.00;93635.91;4932349;29;20400;-66
2023/07/26 02:15:39;;;;;;;10.40;7.07;;;;;;;11.28;100.00;93650.81;4931276;29;20036;-67
2023/07/26 02:18:06;;;;;;;10.27;6.93;;;;;;;11.36;100.00;93656.94;4932480;29;20094;-67
2023/07/26 02:20:34;;;;;;;11.10;6.75;;;;;;;11.43;100.00;93659.53;4931627;29;20052;-66
2023/07/26 02:23:01;;;;;;;11.33;7.23;;;;;;;11.48;100.00;93658.22;4932216;29;20058;-66
2023/07/26 02:25:28;;;;;;;10.73;7.10;;;;;;;11.54;100.00;93664.75;4931432;29;20048;-66
2023/07/26 02:27:54;;;;;;;9.80;6.40;;;;;;;11.65;100.00;93664.50;4932347;29;20086;-68
2023/07/26 02:30:21;;;;;;;8.95;6.15;;;;;;;11.54;100.00;93668.28;4931199;29;20040;-67
2023/07/26 02:32:48;;;;;;;9.10;6.13;;;;;;;11.68;100.00;93656.19;4932440;29;20058;-68
2023/07/26 02:35:15;;;;;;;11.00;6.10;;;;;;;11.70;100.00;93662.03;4931227;29;20043;-66
2023/07/26 02:37:42;;;;;;;7.90;5.70;;;;;;;11.73;100.00;93665.88;4927080;29;20102;-66
2023/07/26 02:40:09;;;;;;;11.48;6.93;;;;;;;11.66;100.00;93668.81;4913284;29;20056;-68
2023/07/26 02:42:36;;;;;;;9.25;6.28;;;;;;;11.62;100.00;93673.63;4925610;29;20477;-67
2023/07/26 02:45:03;;;;;;;9.82;6.63;;;;;;;11.60;100.00;93680.31;4931641;29;20529;-66
2023/07/26 02:47:32;;;;;;;11.80;6.93;;;;;;;11.52;100.00;93680.91;4931197;29;20489;-67
2023/07/26 02:50:04;;;;;;;9.95;6.55;;;;;;;11.50;100.00;93689.56;4931933;29;20055;-66
2023/07/26 02:52:31;;;;;;;10.07;6.45;;;;;;;11.46;100.00;93690.88;4930892;29;20094;-67
2023/07/26 02:54:58;;;;;;;12.27;7.20;;;;;;;11.45;100.00;93692.84;4930434;29;20051;-67
2023/07/26 02:57:25;;;;;;;10.75;7.13;;;;;;;11.26;100.00;93691.66;4931133;29;20044;-66
2023/07/26 02:59:52;;;;;;;15.30;9.40;;;;;;;11.35;100.00;93694.63;4931566;29;20040;-66
2023/07/26 03:02:19;;;;;;;11.15;7.50;;;;;;;11.05;100.00;93703.13;4930930;29;20082;-66
2023/07/26 03:04:46;;;;;;;12.70;7.25;;;;;;;10.78;100.00;93695.78;4931654;29;20054;-66
2023/07/26 03:07:12;;;;;;;9.85;7.28;;;;;;;10.97;100.00;93705.25;4931144;29;20068;-67
2023/07/26 03:09:39;;;;;;;11.88;7.35;;;;;;;10.93;100.00;93708.03;4931180;29;20717;-67
2023/07/26 03:12:06;;;;;;;9.83;6.20;;;;;;;11.00;100.00;93712.63;4931533;29;20039;-66
2023/07/26 03:14:34;;;;;;;8.80;5.88;;;;;;;10.97;100.00;93716.97;4930227;29;20408;-67
2023/07/26 03:17:01;;;;;;;9.85;6.53;;;;;;;11.01;100.00;93714.19;4931036;29;20051;-66
2023/07/26 03:19:47;;;;;;;13.25;6.60;;;;;;;11.06;100.00;93718.38;4930271;29;20601;-66
2023/07/26 03:22:13;;;;;;;10.35;7.03;;;;;;;11.16;100.00;93723.66;4930569;29;20445;-67
2023/07/26 03:24:40;;;;;;;9.33;6.33;;;;;;;11.02;100.00;93718.44;4929580;29;20241;-67
2023/07/26 03:27:08;;;;;;;9.10;6.53;;;;;;;11.00;100.00;93716.13;4931238;29;20497;-66
2023/07/26 03:29:35;;;;;;;11.02;6.80;;;;;;;10.74;100.00;93717.03;4930492;29;20405;-66
2023/07/26 03:32:02;;;;;;;11.75;6.93;;;;;;;10.61;100.00;93721.63;4931030;29;20044;-66
2023/07/26 03:34:28;;;;;;;12.02;7.07;;;;;;;10.62;100.00;93720.41;4930182;29;20090;-66
2023/07/26 03:36:55;;;;;;;10.57;6.83;;;;;;;10.82;100.00;93718.44;4931159;29;20389;-66
2023/07/26 03:39:22;;;;;;;10.20;7.00;;;;;;;10.97;100.00;93714.25;4929885;29;20059;-66
2023/07/26 03:41:49;;;;;;;8.85;6.50;;;;;;;10.97;100.00;93718.97;4930676;29;20062;-68
2023/07/26 03:44:16;;;;;;;9.50;6.22;;;;;;;11.03;100.00;93719.22;4929284;29;20048;-67
2023/07/26 03:46:43;;;;;;;10.50;6.97;;;;;;;11.14;100.00;93730.78;4928075;29;20098;-72
2023/07/26 03:49:10;;;;;;;10.23;7.17;;;;;;;11.08;100.00;93721.47;4928841;29;20062;-67
2023/07/26 03:51:37;;;;;;;10.85;6.93;;;;;;;11.12;100.00;93735.91;4941010;29;20413;-67
2023/07/26 03:54:03;;;;;;;9.32;7.10;;;;;;;11.10;100.00;93727.31;4930960;29;20058;-72
2023/07/26 03:56:30;;;;;;;11.70;6.95;;;;;;;10.88;100.00;93730.50;4930148;29;20043;-68
2023/07/26 03:58:57;;;;;;;10.88;7.20;;;;;;;10.86;100.00;93740.34;4931284;29;20118;-69
2023/07/26 04:01:25;;;;;;;10.30;7.50;;;;;;;10.95;100.00;93740.56;4930079;29;20052;-67
2023/07/26 04:03:52;;;;;;;11.82;7.40;;;;;;;10.83;100.00;93741.97;4914140;29;20050;-67
2023/07/26 04:06:19;;;;;;;10.05;7.10;;;;;;;10.62;100.00;93745.88;4931095;29;20079;-75
2023/07/26 04:08:46;;;;;;;11.32;7.30;;;;;;;10.77;100.00;93746.41;4932042;29;20386;-68
2023/07/26 04:11:13;;;;;;;10.77;7.05;;;;;;;10.94;100.00;93744.50;4931410;29;20052;-68
2023/07/26 04:13:40;;;;;;;11.47;7.23;;;;;;;10.84;100.00;93749.00;4931039;29;20044;-68
2023/07/26 04:16:13;;;;;;;10.38;7.07;;;;;;;10.98;100.00;93748.72;4933982;29;20045;-69
2023/07/26 04:18:40;;;;;;;11.45;8.15;;;;;;;11.00;100.00;93749.06;4927288;29;20089;-67
2023/07/26 04:21:12;;;;;;;14.43;7.78;;;;;;;11.05;100.00;93752.56;4919029;29;20493;-68
2023/07/26 04:23:39;;;;;;;10.65;7.78;;;;;;;10.99;100.00;93764.00;4930704;29;20696;-68
2023/07/26 04:26:06;;;;;;;9.50;7.33;;;;;;;10.97;100.00;93757.41;4946126;29;20043;-69
2023/07/26 04:28:33;;;;;;;13.38;7.70;;;;;;;11.14;100.00;93761.75;4948898;29;20070;-69
2023/07/26 04:31:00;;;;;;;10.18;7.18;;;;;;;11.32;100.00;93760.63;4949199;29;20051;-68
2023/07/26 04:33:26;;;;;;;11.48;7.18;;;;;;;11.43;100.00;93760.41;4948668;29;20048;-71
2023/07/26 04:35:53;;;;;;;11.00;6.70;;;;;;;11.48;100.00;93763.44;4924372;29;20058;-68
2023/07/26 04:38:21;;;;;;;10.13;6.60;;;;;;;11.44;100.00;93761.97;4939739;29;20052;-71
2023/07/26 04:40:47;;;;;;;8.88;6.40;;;;;;;11.49;100.00;93759.50;4938224;29;20064;-68
2023/07/26 04:43:16;;;;;;;11.73;6.88;;;;;;;11.53;100.00;93762.94;4937538;29;20428;-72
2023/07/26 04:45:48;;;;;;;10.68;6.35;;;;;;;11.62;100.00;93756.09;4933895;29;20043;-68
2023/07/26 04:48:16;;;;;;;14.55;7.10;;;;;;;11.66;100.00;93756.78;4932643;29;20052;-68
2023/07/26 04:50:44;;;;;;;10.50;6.60;;;;;;;11.64;100.00;93754.44;4925455;29;20059;-68
2023/07/26 04:53:11;;;;;;;8.40;6.20;;;;;;;11.66;100.00;93749.28;4919158;29;20499;-68
2023/07/26 04:55:48;;;;;;;10.27;6.45;;;;;;;11.65;100.00;93749.72;4924680;29;21793;-67
2023/07/26 04:58:15;;;;;;;9.30;6.25;;;;;;;11.69;100.00;93750.41;4946478;28;20048;-68
2023/07/26 05:00:42;;;;;;;8.15;5.93;;;;;;;11.83;100.00;93750.13;4947721;29;20860;-67
2023/07/26 05:03:10;;;;;;;7.87;5.80;;;;;;;11.79;100.00;93757.63;4933963;29;20098;-67
2023/07/26 05:05:37;;;;;;;8.77;5.35;;;;;;;11.72;100.00;93750.34;4933209;29;20706;-70
2023/07/26 05:08:05;;;;;;;10.13;5.63;;;;;;;11.79;100.00;93752.16;4934061;29;20035;-69
2023/07/26 05:10:33;;;;;;;10.80;5.90;;;;;;;11.70;100.00;93762.97;4933247;29;20056;-69
2023/07/26 05:13:01;;;;;;;7.95;5.70;;;;;;;11.80;100.00;93759.22;4942018;29;20040;-67
2023/07/26 05:15:28;;;;;;;7.37;5.77;;;;;;;11.85;100.00;93768.91;4940824;29;20053;-67
2023/07/26 05:17:54;;;;;;;8.55;6.20;;;;;;;11.87;100.00;93772.00;4926971;29;20070;-67
2023/07/26 05:20:21;;;;;;;10.88;6.35;;;;;;;11.95;100.00;93773.41;4934280;28;20056;-69
2023/07/26 05:22:48;;;;;;;12.63;6.00;;;;;;;11.95;100.00;93767.91;4963555;28;20059;-67
2023/07/26 05:25:15;;;;;;;7.80;5.60;;;;;;;12.24;100.00;93764.53;4952285;29;20359;-67
2023/07/26 05:27:42;;;;;;;8.97;5.90;;;;;;;12.27;100.00;93766.41;4959160;28;20385;-67
2023/07/26 05:30:09;;;;;;;8.25;5.70;;;;;;;12.25;100.00;93761.31;4958407;28;20043;-67
2023/07/26 05:32:36;;;;;;;8.57;5.85;;;;;;;12.37;100.00;93757.91;4952344;29;20043;-69
2023/07/26 05:35:03;;;;;;;9.35;5.25;;;;;;;12.54;100.00;93766.13;4948286;28;20570;-67
2023/07/26 05:37:34;;;;;;;7.70;5.07;;;;;;;12.49;100.00;93755.63;4932818;29;20043;-70
2023/07/26 05:40:02;;;;;;;7.60;5.10;;;;;;;12.50;100.00;93762.72;4933556;29;20142;-70
2023/07/26 05:42:29;;;;;;;8.02;5.05;;;;;;;12.73;100.00;93770.75;4932461;29;20061;-67
2023/07/26 05:44:56;;;;;;;7.63;5.30;;;;;;;12.84;100.00;93772.44;4933260;29;20043;-69
2023/07/26 05:47:23;;;;;;;8.20;5.28;;;;;;;13.23;100.00;93767.88;4947548;29;20059;-67
2023/07/26 05:49:50;;;;;;;6.63;4.78;;;;;;;13.70;100.00;93775.59;4933538;29;20044;-68
2023/07/26 05:52:18;;;;;;;6.10;5.00;;;;;;;15.07;100.00;93770.06;4932917;29;20050;-68
2023/07/26 05:54:44;;;;;;;6.05;4.40;;;;;;;14.10;100.00;93772.44;4933551;29;20058;-68
2023/07/26 05:57:11;;;;;;;7.68;5.20;;;;;;;13.96;100.00;93770.88;4933066;29;20147;-71
2023/07/26 05:59:38;;;;;;;6.65;4.90;;;;;;;13.84;100.00;93777.94;4946861;29;21470;-67
2023/07/26 06:02:05;;;;;;;6.10;4.45;;;;;;;13.78;100.00;93774.97;4918262;29;20044;-67
2023/07/26 06:04:34;;;;;;;7.30;4.93;;;;;;;13.92;100.00;93775.75;4920415;29;20110;-69
2023/07/26 06:07:00;;;;;;;7.53;4.78;;;;;;;14.35;100.00;93771.66;4933237;29;20062;-67
2023/07/26 06:09:30;;;;;;;9.30;4.90;;;;;;;14.81;100.00;93780.44;4931677;29;20051;-70
2023/07/26 06:11:57;;;;;;;7.85;4.57;;;;;;;16.15;100.00;93777.19;4938954;28;20059;-68
2023/07/26 06:14:24;;;;;;;7.10;4.53;;;;;;;16.13;100.00;93777.66;4934319;29;20046;-67
2023/07/26 06:16:53;;;;;;;5.90;4.20;;;;;;;17.54;100.00;93781.00;4932463;29;20147;-67
2023/07/26 06:19:20;;;;;;;5.82;4.05;;;;;;;17.01;100.00;93782.06;4940132;29;20039;-67
2023/07/26 06:21:47;;;;;;;5.45;3.92;;;;;;;16.32;100.00;93774.97;4940631;29;20095;-68
2023/07/26 06:24:14;;;;;;;6.20;4.13;;;;;;;18.06;100.00;93770.72;4942399;28;20047;-67
2023/07/26 06:26:41;;;;;;;5.22;3.70;;;;;;;20.95;88.56;93775.72;4939878;29;20055;-69
2023/07/26 06:29:07;;;;;;;6.50;3.70;;;;;;;22.53;69.73;93768.25;4940482;29;20419;-66
2023/07/26 06:31:34;;;;;;;5.00;3.03;;;;;;;22.21;69.79;93773.06;4939630;28;20042;-66
2023/07/26 06:34:01;;;;;;;6.05;3.17;;;;;;;19.99;80.06;93770.69;4938954;29;20686;-66
2023/07/26 06:36:28;;;;;;;4.93;3.42;;;;;;;18.47;92.52;93773.19;4934811;29;20382;-65
2023/07/26 06:38:54;;;;;;;6.47;3.75;;;;;;;17.51;100.00;93781.94;4937717;29;20044;-70
2023/07/26 06:41:21;;;;;;;5.30;3.50;;;;;;;16.82;100.00;93786.03;4940106;29;20048;-68
2023/07/26 06:43:48;;;;;;;6.18;3.63;;;;;;;16.23;100.00;93783.25;4940368;29;20058;-67
2023/07/26 06:46:15;;;;;;;5.53;3.70;;;;;;;15.92;100.00;93778.50;4939652;29;20043;-66
2023/07/26 06:48:42;;;;;;;6.22;3.97;;;;;;;15.30;100.00;93788.22;4934428;29;20044;-68
2023/07/26 06:51:12;;;;;;;5.70;3.50;;;;;;;15.62;100.00;93780.75;4937405;29;20055;-67
2023/07/26 06:53:39;;;;;;;6.13;3.83;;;;;;;15.09;100.00;93786.19;4931118;29;20588;-68
2023/07/26 06:56:05;;;;;;;7.15;4.22;;;;;;;14.84;100.00;93793.34;4939912;29;20469;-67
2023/07/26 06:58:32;;;;;;;6.68;4.22;;;;;;;15.03;100.00;93796.28;4925071;29;20505;-68
2023/07/26 07:00:59;;;;;;;5.85;4.15;;;;;;;14.96;100.00;93798.06;4931402;29;20068;-67
2023/07/26 07:03:27;;;;;;;6.90;3.90;;;;;;;14.86;100.00;93795.66;4914062;29;20401;-66
2023/07/26 07:05:54;;;;;;;5.63;3.90;;;;;;;14.79;100.00;93796.69;4930278;29;20464;-66
2023/07/26 07:08:21;;;;;;;5.97;3.90;;;;;;;14.73;100.00;93798.47;4929633;29;20102;-66
2023/07/26 07:10:48;;;;;;;5.88;3.95;;;;;;;14.32;100.00;93811.19;4938154;29;20056;-68
2023/07/26 07:13:15;;;;;;;5.15;3.75;;;;;;;14.48;100.00;93800.00;4928404;29;20047;-66
2023/07/26 07:15:41;;;;;;;6.10;3.85;;;;;;;14.38;100.00;93803.88;4931688;29;20747;-68
2023/07/26 07:18:08;;;;;;;7.13;3.87;;;;;;;14.14;100.00;93806.22;4932067;29;20036;-66
2023/07/26 07:20:41;;;;;;;5.63;3.60;;;;;;;13.79;100.00;93808.84;4943540;28;20075;-68
2023/07/26 07:23:09;;;;;;;6.22;3.60;;;;;;;13.95;100.00;93805.22;4939298;29;20047;-67
2023/07/26 07:25:39;;;;;;;5.72;3.40;;;;;;;13.81;100.00;93802.88;4934346;29;20380;-67
2023/07/26 07:28:06;;;;;;;6.05;3.78;;;;;;;13.79;100.00;93803.31;4935764;29;20058;-67
2023/07/26 07:30:33;;;;;;;6.60;3.80;;;;;;;13.97;100.00;93802.78;4938223;29;20456;-67
2023/07/26 07:33:00;;;;;;;5.63;3.78;;;;;;;13.93;100.00;93808.41;4939818;29;20047;-68
2023/07/26 07:35:27;;;;;;;6.05;3.50;;;;;;;14.12;100.00;93803.13;4939475;29;20050;-66
2023/07/26 07:37:54;;;;;;;6.80;3.95;;;;;;;13.92;100.00;93803.31;4937118;29;20473;-67
2023/07/26 07:40:21;;;;;;;5.97;3.42;;;;;;;14.15;100.00;93805.00;4934734;29;20051;-67
2023/07/26 07:42:48;;;;;;;5.80;3.30;;;;;;;13.97;100.00;93811.84;4937719;29;20047;-67
2023/07/26 07:45:15;;;;;;;5.20;3.53;;;;;;;13.30;100.00;93820.84;4938988;29;20044;-67
2023/07/26 07:47:42;;;;;;;8.25;3.42;;;;;;;13.39;100.00;93812.69;4939170;29;20396;-67
2023/07/26 07:50:08;;;;;;;6.93;3.50;;;;;;;13.41;100.00;93812.28;4939380;29;20102;-67
2023/07/26 07:52:35;;;;;;;6.00;3.58;;;;;;;13.53;100.00;93814.28;4933792;29;20053;-67
2023/07/26 07:55:02;;;;;;;6.43;3.67;;;;;;;13.48;100.00;93808.53;4936214;29;20044;-67
2023/07/26 07:57:29;;;;;;;5.85;4.13;;;;;;;13.40;100.00;93810.75;4939049;29;20044;-67
2023/07/26 07:59:56;;;;;;;7.80;3.80;;;;;;;13.51;100.00;93815.94;4939158;29;20130;-67
2023/07/26 08:02:23;;;;;;;5.68;3.80;;;;;;;13.30;100.00;93812.56;4938687;28;20043;-67
2023/07/26 08:04:50;;;;;;;6.35;3.80;;;;;;;13.07;100.00;93823.78;4935934;29;20274;-66
2023/07/26 08:07:17;;;;;;;5.87;3.90;;;;;;;13.16;100.00;93819.22;4933391;29;20042;-67
2023/07/26 08:09:44;;;;;;;6.65;3.95;;;;;;;13.04;100.00;93816.38;4938264;29;20052;-67
2023/07/26 08:12:11;;;;;;;6.32;4.00;;;;;;;13.09;100.00;93815.88;4939289;29;20056;-69
2023/07/26 08:14:37;;;;;;;6.32;4.13;;;;;;;12.85;100.00;93821.59;4938309;29;20035;-67
2023/07/26 08:17:04;;;;;;;6.88;3.78;;;;;;;12.85;100.00;93820.81;4937889;29;20499;-69
2023/07/26 08:19:31;;;;;;;5.63;3.90;;;;;;;13.01;100.00;93828.28;4933728;29;20055;-66
2023/07/26 08:21:58;;;;;;;6.20;4.00;;;;;;;12.94;100.00;93827.25;4936058;29;20073;-67
2023/07/26 08:24:26;;;;;;;6.40;4.00;;;;;;;13.05;100.00;93821.47;4937972;29;20118;-70
2023/07/26 08:26:55;;;;;;;8.30;4.05;;;;;;;13.05;100.00;93820.69;4935774;28;20146;-66
2023/07/26 08:29:22;;;;;;;7.55;3.92;;;;;;;12.81;100.00;93822.88;4930981;29;20107;-67
2023/07/26 08:31:49;;;;;;;5.50;3.50;;;;;;;12.69;100.00;93818.84;4931729;29;20054;-67
2023/07/26 08:34:15;;;;;;;6.95;3.88;;;;;;;12.61;100.00;93828.50;4934579;29;20102;-69
2023/07/26 08:36:42;;;;;;;6.78;3.90;;;;;;;12.79;100.00;93829.59;4934699;29;20055;-66
2023/07/26 08:39:09;;;;;;;7.72;3.80;;;;;;;12.90;100.00;93832.09;4917928;29;20060;-66
2023/07/26 08:41:51;;;;;;;6.55;3.90;;;;;;;13.10;100.00;93829.22;4934758;29;20683;-66
2023/07/26 08:44:19;;;;;;;7.80;3.40;;;;;;;13.42;100.00;93827.63;4934494;29;20382;-67
2023/07/26 08:46:48;;;;;;;5.50;3.38;;;;;;;13.48;100.00;93828.63;4934433;29;20043;-66
2023/07/26 08:49:14;;;;;;;7.78;3.50;;;;;;;13.76;100.00;93820.72;4934430;29;20048;-66
2023/07/26 08:51:43;;;;;;;5.28;3.13;;;;;;;13.14;100.00;93820.88;4934512;29;20477;-66
2023/07/26 08:54:10;;;;;;;4.75;3.25;;;;;;;13.42;100.00;93824.06;4934401;29;20105;-66
2023/07/26 08:56:38;;;;;;;7.03;3.40;;;;;;;14.12;100.00;93828.72;4933754;29;20065;-67
2023/07/26 08:59:05;;;;;;;4.43;2.88;;;;;;;14.70;100.00;93818.69;4934548;29;20544;-67
2023/07/26 09:01:32;;;;;;;4.32;2.90;;;;;;;15.60;100.00;93815.63;4933538;29;20081;-67
2023/07/26 09:04:16;;;;;;;4.55;3.03;;;;;;;15.96;100.00;93821.41;4934092;29;20154;-68
2023/07/26 09:06:45;;;;;;;4.18;2.78;;;;;;;16.17;100.00;93814.28;4934228;29;20051;-69
2023/07/26 09:09:11;;;;;;;4.97;3.40;;;;;;;17.47;100.00;93815.38;4934193;29;20412;-68
2023/07/26 09:11:49;;;;;;;4.43;2.78;;;;;;;19.05;93.03;93805.31;4946662;28;21753;-68
2023/07/26 09:14:16;;;;;;;4.90;2.83;;;;;;;19.09;85.76;93802.38;4925097;29;20053;-68
2023/07/26 09:16:46;;;;;;;5.43;2.60;;;;;;;18.42;91.91;93807.94;4937991;29;20150;-67
2023/07/26 09:19:12;;;;;;;3.80;2.60;;;;;;;19.01;87.05;93804.72;4951781;28;20047;-67
2023/07/26 09:21:40;;;;;;;4.03;2.20;;;;;;;20.08;80.21;93792.91;4937354;28;20489;-68
2023/07/26 09:24:09;;;;;;;4.85;2.20;;;;;;;19.49;86.68;93806.72;4937665;29;20452;-67
2023/07/26 09:26:41;;;;;;;3.65;2.40;;;;;;;19.95;80.19;93797.97;4952208;28;20141;-69
2023/07/26 09:29:11;;;;;;;3.78;2.20;;;;;;;20.47;79.47;93794.78;4941419;29;20049;-67
2023/07/26 09:31:41;;;;;;;4.78;2.20;;;;;;;19.82;80.27;93803.84;4948704;29;20032;-68
2023/07/26 09:34:12;;;;;;;4.10;2.30;;;;;;;19.09;85.74;93791.25;4940833;29;20043;-66
2023/07/26 09:36:43;;;;;;;3.85;2.50;;;;;;;17.25;94.88;93798.13;4935659;29;20705;-69
2023/07/26 09:39:12;;;;;;;5.00;2.60;;;;;;;17.52;96.90;93794.56;4910140;29;20066;-67
2023/07/26 09:41:39;;;;;;;3.63;2.20;;;;;;;18.00;91.16;93794.06;4936293;29;20812;-67
2023/07/26 09:44:12;;;;;;;3.75;2.28;;;;;;;17.96;85.80;93797.75;4951513;28;20043;-66
2023/07/26 09:46:51;;;;;;;4.33;2.33;;;;;;;18.65;82.61;93797.34;4932284;29;20770;-67
2023/07/26 09:49:22;;;;;;;4.03;2.22;;;;;;;19.40;78.66;93799.22;4940942;29;20048;-68
2023/07/26 09:51:55;;;;;;;3.83;2.15;;;;;;;22.47;63.52;93789.81;4941232;29;20446;-65
2023/07/26 09:54:25;;;;;;;3.17;1.85;;;;;;;23.00;58.47;93780.00;4939900;29;20062;-66
2023/07/26 09:56:58;;;;;;;3.25;2.00;;;;;;;21.96;59.66;93783.00;4926617;28;20059;-65
2023/07/26 09:59:29;;;;;;;3.07;2.17;;;;;;;20.67;60.16;93786.50;4946232;28;20051;-67
2023/07/26 10:02:01;;;;;;;3.55;2.00;;;;;;;19.86;64.02;93790.50;4925716;29;20055;-67
2023/07/26 10:04:49;;;;;;;3.40;2.22;;;;;;;19.34;68.47;93790.75;4948637;29;20449;-67
2023/07/26 10:07:16;;;;;;;4.18;2.22;;;;;;;18.86;68.85;93795.56;4920227;29;20047;-69
2023/07/26 10:09:44;;;;;;;4.38;2.05;;;;;;;19.75;67.47;93796.63;4940643;29;20031;-67
2023/07/26 10:12:12;;;;;;;3.50;2.20;;;;;;;21.42;58.71;93792.56;4940649;29;20057;-69
2023/07/26 10:14:39;;;;;;;4.10;1.90;;;;;;;22.17;58.58;93780.91;4931602;29;20103;-72
2023/07/26 10:17:06;;;;;;;3.47;1.60;;;;;;;23.50;51.71;93767.50;4928200;29;20051;-68
2023/07/26 10:19:36;;;;;;;3.22;1.63;;;;;;;23.97;50.15;93762.34;4929752;29;20382;-65
2023/07/26 10:22:05;;;;;;;3.17;1.90;;;;;;;25.36;45.95;93772.44;4932312;29;20070;-66
2023/07/26 10:24:36;;;;;;;2.80;1.60;;;;;;;24.66;40.59;93772.31;4931632;29;22562;-66
2023/07/26 10:27:04;;;;;;;3.15;1.60;;;;;;;25.02;40.24;93781.69;4927559;29;20702;-69
2023/07/26 10:29:31;;;;;;;3.33;1.65;;;;;;;25.48;37.71;93773.94;4932064;29;20055;-69
2023/07/26 10:32:08;;;;;;;3.35;1.70;;;;;;;25.85;37.34;93779.09;4916852;29;20044;-66
2023/07/26 10:34:35;;;;;;;2.85;1.90;;;;;;;24.82;37.46;93776.38;4924304;29;20488;-66
2023/07/26 10:37:19;;;;;;;3.17;2.00;;;;;;;24.25;39.63;93792.44;4944916;29;20051;-66
2023/07/26 10:39:48;;;;;;;3.72;2.05;;;;;;;23.21;42.27;93783.44;4907566;29;20127;-66
2023/07/26 10:42:23;;;;;;;3.10;1.80;;;;;;;22.76;42.98;93785.97;4918949;29;20051;-66
2023/07/26 10:44:51;;;;;;;3.78;2.10;;;;;;;22.74;43.51;93774.50;4925658;29;20420;-65
2023/07/26 10:47:18;;;;;;;4.47;2.00;;;;;;;20.78;48.34;93799.06;4916436;29;20055;-65
2023/07/26 10:49:47;;;;;;;4.70;2.30;;;;;;;19.69;62.24;93833.94;4924172;29;20052;-65
2023/07/26 10:52:15;;;;;;;4.18;2.38;;;;;;;18.37;76.74;93853.03;4923786;29;20508;-70
2023/07/26 10:54:49;;;;;;;3.80;2.30;;;;;;;17.55;85.04;93865.78;4927741;29;20052;-69
2023/07/26 10:57:20;;;;;;;5.28;2.22;;;;;;;16.82;97.24;93877.50;4928708;29;20466;-66
2023/07/26 10:59:54;;;;;;;5.90;2.60;;;;;;;16.55;100.00;93873.38;4925871;29;20060;-66
2023/07/26 11:02:42;;;;;;;4.37;2.40;;;;;;;16.28;98.96;93860.16;4941704;29;20056;-67
2023/07/26 11:05:17;;;;;;;5.15;2.30;;;;;;;17.01;99.16;93876.34;4928182;29;20053;-66
2023/07/26 11:07:51;;;;;;;5.95;2.60;;;;;;;15.90;100.00;93884.09;4926341;29;20104;-70
2023/07/26 11:10:21;;;;;;;4.90;2.50;;;;;;;16.24;100.00;93879.69;4928193;29;20066;-69
2023/07/26 11:12:50;;;;;;;4.07;2.42;;;;;;;17.01;100.00;93887.44;4924948;29;20409;-67
2023/07/26 11:15:30;;;;;;;4.97;2.20;;;;;;;17.09;100.00;93874.06;4923198;29;20044;-70
2023/07/26 11:18:19;;;;;;;4.65;2.40;;;;;;;16.80;100.00;93861.28;4933357;29;20048;-67
2023/07/26 11:20:49;;;;;;;4.72;2.40;;;;;;;17.80;100.00;93873.00;4937608;29;20104;-67
2023/07/26 11:23:24;;;;;;;3.60;2.20;;;;;;;18.10;92.42;93876.09;4938231;29;20360;-69
2023/07/26 11:25:58;;;;;;;4.20;2.30;;;;;;;17.88;100.00;93865.19;4920386;29;20044;-67
2023/07/26 11:28:31;;;;;;;4.17;2.30;;;;;;;17.91;95.78;93840.03;4931000;29;20050;-68
2023/07/26 11:31:01;;;;;;;4.57;2.13;;;;;;;19.06;90.39;93831.91;4931463;29;20122;-69